createdAt,value
2022-12-18T00:01:34.061Z,27.56
2022-12-18T00:04:00.630Z,28.16
2022-12-18T00:06:27.093Z,27.95
2022-12-18T00:08:54.785Z,29.73
2022-12-18T00:11:21.352Z,29.78
2022-12-18T00:13:47.762Z,30.51
2022-12-18T00:16:14.569Z,31.69
2022-12-18T00:18:44.256Z,29.98
2022-12-18T00:21:11.880Z,31.18
2022-12-18T00:23:38.653Z,32.23
2022-12-18T00:26:05.278Z,32.60
2022-12-18T00:28:31.675Z,32.30
2022-12-18T00:30:59.144Z,30.68
2022-12-18T00:33:28.077Z,31.67
2022-12-18T00:35:54.432Z,31.64
2022-12-18T00:38:20.831Z,31.44
2022-12-18T00:40:47.417Z,30.84
2022-12-18T00:43:13.857Z,31.56
2022-12-18T00:45:40.327Z,29.91
2022-12-18T00:48:07.227Z,30.21
2022-12-18T00:50:33.588Z,29.83
2022-12-18T00:52:59.937Z,29.86
2022-12-18T00:55:26.318Z,29.65
2022-12-18T00:57:55.866Z,29.65
2022-12-18T01:00:22.219Z,30.08
2022-12-18T01:02:51.216Z,29.28
2022-12-18T01:05:17.641Z,29.52
2022-12-18T01:07:44.017Z,29.94
2022-12-18T01:10:10.811Z,30.56
2022-12-18T01:12:39.617Z,30.37
2022-12-18T01:15:06.064Z,28.93
2022-12-18T01:17:32.459Z,29.00
2022-12-18T01:20:01.120Z,28.88
2022-12-18T01:22:27.765Z,28.92
2022-12-18T01:24:56.800Z,29.16
2022-12-18T01:27:23.562Z,28.51
2022-12-18T01:29:50.095Z,28.25
2022-12-18T01:32:16.479Z,28.63
2022-12-18T01:34:42.838Z,28.60
2022-12-18T01:37:09.368Z,28.58
2022-12-18T01:39:35.838Z,28.85
2022-12-18T01:42:04.052Z,28.97
2022-12-18T01:44:30.738Z,27.92
2022-12-18T01:46:57.237Z,26.98
2022-12-18T01:49:27.122Z,27.10
2022-12-18T01:51:54.824Z,26.07
2022-12-18T01:54:21.179Z,27.23
2022-12-18T01:56:47.638Z,26.30
2022-12-18T01:59:16.554Z,27.40
2022-12-18T02:01:43.136Z,29.37
2022-12-18T02:04:09.561Z,28.16
2022-12-18T02:06:36.034Z,28.34
2022-12-18T02:09:03.546Z,28.22
2022-12-18T02:11:29.939Z,28.46
2022-12-18T02:13:56.314Z,28.01
2022-12-18T02:16:22.837Z,27.33
2022-12-18T02:18:50.013Z,27.50
2022-12-18T02:21:17.031Z,26.85
2022-12-18T02:23:43.916Z,26.29
2022-12-18T02:26:10.310Z,27.30
2022-12-18T02:28:36.653Z,26.67
2022-12-18T02:31:04.462Z,25.81
2022-12-18T02:33:30.923Z,26.28
2022-12-18T02:35:57.263Z,24.73
2022-12-18T02:38:25.907Z,25.92
2022-12-18T02:40:52.539Z,25.46
2022-12-18T02:43:18.987Z,24.66
2022-12-18T02:45:47.922Z,24.18
2022-12-18T02:48:14.339Z,24.60
2022-12-18T02:50:40.837Z,24.22
2022-12-18T02:53:08.251Z,23.89
2022-12-18T02:55:35.720Z,23.39
2022-12-18T02:58:02.276Z,23.12
2022-12-18T03:00:31.011Z,23.70
2022-12-18T03:02:58.531Z,21.97
2022-12-18T03:05:25.352Z,22.50
2022-12-18T03:07:51.827Z,22.58
2022-12-18T03:10:18.245Z,21.78
2022-12-18T03:12:45.041Z,22.09
2022-12-18T03:15:17.262Z,21.60
2022-12-18T03:17:44.989Z,22.39
2022-12-18T03:20:12.207Z,21.97
2022-12-18T03:22:38.688Z,20.66
2022-12-18T03:25:05.077Z,21.22
2022-12-18T03:27:31.581Z,21.56
2022-12-18T03:29:58.070Z,20.61
2022-12-18T03:32:24.437Z,21.20
2022-12-18T03:34:51.168Z,21.95
2022-12-18T03:37:18.064Z,21.24
2022-12-18T03:39:44.769Z,20.83
2022-12-18T03:42:11.211Z,20.92
2022-12-18T03:44:37.834Z,20.90
2022-12-18T03:47:04.359Z,20.39
2022-12-18T03:49:32.895Z,19.96
2022-12-18T03:51:59.263Z,19.03
2022-12-18T03:54:25.929Z,18.84
2022-12-18T03:56:52.322Z,17.93
2022-12-18T03:59:20.121Z,18.97
2022-12-18T04:01:46.592Z,18.33
2022-12-18T04:04:13.115Z,17.83
2022-12-18T04:06:39.496Z,17.00
2022-12-18T04:09:05.864Z,17.44
2022-12-18T04:11:32.234Z,16.87
2022-12-18T04:13:58.608Z,17.41
2022-12-18T04:16:25.110Z,16.21
2022-12-18T04:18:51.481Z,15.95
2022-12-18T04:21:18.018Z,15.68
2022-12-18T04:23:44.572Z,15.25
2022-12-18T04:26:11.012Z,15.76
2022-12-18T04:28:37.463Z,14.94
2022-12-18T04:31:03.968Z,15.41
2022-12-18T04:33:33.221Z,14.54
2022-12-18T04:35:59.591Z,14.68
2022-12-18T04:38:26.017Z,14.83
2022-12-18T04:40:52.363Z,15.12
2022-12-18T04:43:18.912Z,15.22
2022-12-18T04:45:48.257Z,15.52
2022-12-18T04:48:14.821Z,14.52
2022-12-18T04:50:43.528Z,14.55
2022-12-18T04:53:11.948Z,15.18
2022-12-18T04:55:40.490Z,15.16
2022-12-18T04:58:07.089Z,14.43
2022-12-18T05:00:37.552Z,15.65
2022-12-18T05:03:04.295Z,14.42
2022-12-18T05:05:30.731Z,14.87
2022-12-18T05:07:57.559Z,14.76
2022-12-18T05:10:24.273Z,13.86
2022-12-18T05:12:50.893Z,13.54
2022-12-18T05:15:17.324Z,14.14
2022-12-18T05:17:43.918Z,13.68
2022-12-18T05:20:10.310Z,14.24
2022-12-18T05:22:36.719Z,14.42
2022-12-18T05:25:03.194Z,14.51
2022-12-18T05:27:34.672Z,14.17
2022-12-18T05:30:01.027Z,14.07
2022-12-18T05:32:27.494Z,13.83
2022-12-18T05:34:54.194Z,13.63
2022-12-18T05:37:20.959Z,13.42
2022-12-18T05:39:48.175Z,14.51
2022-12-18T05:42:15.572Z,13.36
2022-12-18T05:44:42.197Z,14.04
2022-12-18T05:47:09.096Z,13.77
2022-12-18T05:49:38.742Z,14.18
2022-12-18T05:52:05.096Z,13.85
2022-12-18T05:54:31.479Z,14.20
2022-12-18T05:57:02.365Z,14.27
2022-12-18T05:59:29.080Z,13.94
2022-12-18T06:01:55.800Z,13.96
2022-12-18T06:04:22.285Z,13.92
2022-12-18T06:06:48.687Z,14.09
2022-12-18T06:09:15.126Z,14.09
2022-12-18T06:11:44.001Z,14.01
2022-12-18T06:14:10.913Z,14.03
2022-12-18T06:16:37.371Z,14.34
2022-12-18T06:19:03.783Z,13.74
2022-12-18T06:21:30.428Z,13.96
2022-12-18T06:23:57.766Z,13.23
2022-12-18T06:26:28.272Z,13.70
2022-12-18T06:28:55.069Z,13.52
2022-12-18T06:31:21.735Z,14.20
2022-12-18T06:33:48.336Z,14.92
2022-12-18T06:36:17.421Z,14.67
2022-12-18T06:38:46.278Z,14.46
2022-12-18T06:41:12.685Z,15.15
2022-12-18T06:43:39.392Z,14.77
2022-12-18T06:46:06.372Z,15.59
2022-12-18T06:48:32.781Z,14.84
2022-12-18T06:50:59.132Z,15.00
2022-12-18T06:53:25.957Z,16.18
2022-12-18T06:55:52.295Z,14.68
2022-12-18T06:58:19.571Z,14.93
2022-12-18T07:00:45.992Z,15.04
2022-12-18T07:03:12.714Z,14.26
2022-12-18T07:05:39.133Z,15.70
2022-12-18T07:08:07.746Z,15.01
2022-12-18T07:10:34.472Z,14.42
2022-12-18T07:13:01.036Z,14.63
2022-12-18T07:15:27.626Z,14.39
2022-12-18T07:17:53.957Z,14.45
2022-12-18T07:20:20.297Z,14.84
2022-12-18T07:22:51.983Z,15.52
2022-12-18T07:25:21.502Z,15.94
2022-12-18T07:27:47.885Z,17.35
2022-12-18T07:30:14.264Z,16.67
2022-12-18T07:32:43.002Z,17.68
2022-12-18T07:35:10.379Z,18.49
2022-12-18T07:37:37.748Z,16.64
2022-12-18T07:40:04.273Z,18.29
2022-12-18T07:42:30.682Z,18.82
2022-12-18T07:44:57.192Z,18.40
2022-12-18T07:47:24.669Z,18.78
2022-12-18T07:49:53.544Z,17.77
2022-12-18T07:52:25.577Z,17.52
2022-12-18T07:54:52.414Z,16.97
2022-12-18T07:57:41.853Z,16.97
2022-12-18T08:00:05.132Z,16.83
2022-12-18T08:02:31.865Z,17.66
2022-12-18T08:05:01.633Z,17.80
2022-12-18T08:07:29.833Z,18.60
2022-12-18T08:09:56.568Z,19.53
2022-12-18T08:12:23.468Z,19.98
2022-12-18T08:14:53.423Z,19.56
2022-12-18T08:17:20.111Z,19.06
2022-12-18T08:19:46.505Z,20.00
2022-12-18T08:22:12.985Z,20.58
2022-12-18T08:24:39.339Z,19.72
2022-12-18T08:27:28.476Z,19.01
2022-12-18T08:29:53.580Z,18.68
2022-12-18T08:32:21.244Z,19.13
2022-12-18T08:34:47.854Z,18.80
2022-12-18T08:37:22.797Z,17.61
2022-12-18T08:39:49.416Z,16.29
2022-12-18T08:42:16.045Z,15.62
2022-12-18T08:44:43.981Z,15.41
2022-12-18T08:47:10.729Z,15.06
2022-12-18T08:49:37.309Z,15.06
2022-12-18T08:52:03.873Z,15.36
2022-12-18T08:54:32.806Z,15.88
2022-12-18T08:56:59.264Z,14.99
2022-12-18T08:59:25.869Z,15.56
2022-12-18T09:02:00.167Z,14.86
2022-12-18T09:04:27.992Z,14.37
2022-12-18T09:06:56.756Z,15.03
2022-12-18T09:09:23.129Z,14.79
2022-12-18T09:11:50.036Z,17.03
2022-12-18T09:14:18.790Z,19.25
2022-12-18T09:16:45.235Z,18.16
2022-12-18T09:19:11.650Z,16.30
2022-12-18T09:21:38.021Z,16.67
2022-12-18T09:24:08.632Z,16.34
2022-12-18T09:26:35.750Z,16.59
2022-12-18T09:29:02.160Z,16.66
2022-12-18T09:31:28.807Z,14.44
2022-12-18T09:33:55.420Z,14.64
2022-12-18T09:36:21.891Z,15.87
2022-12-18T09:38:48.384Z,16.98
2022-12-18T09:41:15.844Z,16.51
2022-12-18T09:43:42.409Z,16.11
2022-12-18T09:46:08.943Z,15.70
2022-12-18T09:48:35.908Z,15.45
2022-12-18T09:51:06.599Z,16.19
2022-12-18T09:53:32.948Z,16.01
2022-12-18T09:56:01.530Z,16.60
2022-12-18T09:58:30.028Z,16.65
2022-12-18T10:00:56.937Z,18.40
2022-12-18T10:03:23.434Z,21.14
2022-12-18T10:05:52.336Z,20.59
2022-12-18T10:08:18.683Z,20.63
2022-12-18T10:10:45.058Z,21.44
2022-12-18T10:13:13.669Z,21.31
2022-12-18T10:15:40.248Z,21.86
2022-12-18T10:18:06.614Z,19.74
2022-12-18T10:20:32.997Z,18.21
2022-12-18T10:23:00.379Z,17.79
2022-12-18T10:25:28.182Z,18.38
2022-12-18T10:27:54.787Z,18.95
2022-12-18T10:30:21.135Z,19.31
2022-12-18T10:32:47.515Z,20.37
2022-12-18T10:35:14.180Z,21.31
2022-12-18T10:37:40.870Z,21.23
2022-12-18T10:40:08.055Z,22.01
2022-12-18T10:42:36.557Z,21.30
2022-12-18T10:45:04.131Z,21.40
2022-12-18T10:47:30.521Z,22.56
2022-12-18T10:49:56.901Z,21.85
2022-12-18T10:52:24.410Z,23.16
2022-12-18T10:54:50.823Z,25.51
2022-12-18T10:57:17.267Z,24.81
2022-12-18T10:59:43.627Z,22.80
2022-12-18T11:02:11.211Z,22.30
2022-12-18T11:04:37.628Z,21.33
2022-12-18T11:07:05.063Z,22.23
2022-12-18T11:09:31.688Z,21.54
2022-12-18T11:12:00.498Z,22.13
2022-12-18T11:14:27.296Z,21.72
2022-12-18T11:19:40.406Z,22.03
2022-12-18T11:22:06.855Z,25.09
2022-12-18T11:24:33.198Z,25.20
2022-12-18T11:27:00.207Z,25.12
2022-12-18T11:29:26.602Z,24.10
2022-12-18T11:31:53.135Z,21.73
2022-12-18T11:34:28.995Z,21.94
2022-12-18T11:36:55.940Z,20.27
2022-12-18T11:39:22.521Z,20.09
2022-12-18T11:41:49.724Z,19.99
2022-12-18T11:44:18.996Z,19.78
2022-12-18T11:46:46.390Z,19.82
2022-12-18T11:49:13.153Z,19.81
2022-12-18T11:51:39.543Z,20.26
2022-12-18T11:54:05.882Z,20.61
2022-12-18T11:56:32.286Z,20.36
2022-12-18T11:58:59.045Z,18.85
2022-12-18T12:01:25.619Z,17.81
2022-12-18T12:03:52.046Z,16.73
2022-12-18T12:06:18.512Z,15.64
2022-12-18T12:08:45.149Z,16.77
2022-12-18T12:11:11.495Z,16.46
2022-12-18T12:13:38.107Z,16.80
2022-12-18T12:16:04.796Z,17.96
2022-12-18T12:18:31.266Z,17.65
2022-12-18T12:20:57.832Z,19.20
2022-12-18T12:23:27.636Z,20.06
2022-12-18T12:25:54.700Z,18.77
2022-12-18T12:28:22.121Z,19.45
2022-12-18T12:30:48.588Z,19.67
2022-12-18T12:33:15.326Z,19.24
2022-12-18T12:35:41.987Z,18.81
2022-12-18T12:38:08.332Z,19.83
2022-12-18T12:40:52.616Z,19.59
2022-12-18T12:43:21.143Z,18.06
2022-12-18T12:45:50.900Z,18.02
2022-12-18T12:48:25.026Z,17.39
2022-12-18T12:50:52.511Z,15.21
2022-12-18T12:53:19.040Z,14.56
2022-12-18T12:55:45.910Z,14.05
2022-12-18T12:58:12.913Z,14.10
2022-12-18T13:00:39.265Z,14.07
2022-12-18T13:03:06.622Z,14.85
2022-12-18T13:05:34.279Z,15.67
2022-12-18T13:08:03.251Z,15.31
2022-12-18T13:10:30.196Z,15.06
2022-12-18T13:12:56.887Z,15.20
2022-12-18T13:15:24.320Z,13.86
2022-12-18T13:17:52.219Z,14.24
2022-12-18T13:20:19.122Z,14.12
2022-12-18T13:22:45.459Z,13.47
2022-12-18T13:25:11.933Z,14.11
2022-12-18T13:27:38.587Z,13.85
2022-12-18T13:30:06.343Z,13.66
2022-12-18T13:32:33.464Z,14.74
2022-12-18T13:35:01.136Z,15.71
2022-12-18T13:37:27.648Z,15.68
2022-12-18T13:39:54.143Z,15.09
2022-12-18T13:42:20.719Z,15.68
2022-12-18T13:44:47.097Z,14.81
2022-12-18T13:47:13.579Z,15.43
2022-12-18T13:49:40.971Z,15.16
2022-12-18T13:52:07.316Z,15.24
2022-12-18T13:54:33.748Z,14.81
2022-12-18T13:57:00.126Z,15.63
2022-12-18T13:59:26.568Z,15.21
2022-12-18T14:01:53.923Z,14.91
2022-12-18T14:04:20.522Z,15.24
2022-12-18T14:06:46.945Z,14.41
2022-12-18T14:09:20.313Z,14.74
2022-12-18T14:11:47.998Z,15.78
2022-12-18T14:14:14.382Z,15.81
2022-12-18T14:16:40.950Z,15.46
2022-12-18T14:19:15.150Z,16.02
2022-12-18T14:21:42.206Z,15.87
2022-12-18T14:24:08.647Z,15.55
2022-12-18T14:26:36.036Z,14.60
2022-12-18T14:29:02.428Z,14.93
2022-12-18T14:31:29.773Z,14.82
2022-12-18T14:33:56.255Z,14.16
2022-12-18T14:36:22.713Z,13.78
2022-12-18T14:38:49.179Z,14.18
2022-12-18T14:41:15.618Z,13.22
2022-12-18T14:43:43.414Z,13.16
2022-12-18T14:46:10.210Z,13.50
2022-12-18T14:48:37.148Z,14.33
2022-12-18T14:51:03.532Z,14.31
2022-12-18T14:53:30.493Z,14.79
2022-12-18T14:55:57.313Z,14.44
2022-12-18T14:58:24.036Z,14.42
2022-12-18T15:00:50.774Z,15.14
2022-12-18T15:03:17.178Z,15.13
2022-12-18T15:05:45.247Z,14.82
2022-12-18T15:08:13.911Z,14.60
2022-12-18T15:10:40.500Z,14.26
2022-12-18T15:13:06.959Z,14.95
2022-12-18T15:15:33.604Z,14.07
2022-12-18T15:17:59.985Z,13.37
2022-12-18T15:20:28.423Z,14.37
2022-12-18T15:22:54.800Z,14.57
2022-12-18T15:25:21.173Z,14.13
2022-12-18T15:27:47.486Z,14.27
2022-12-18T15:30:16.103Z,14.45
2022-12-18T15:32:42.501Z,14.68
2022-12-18T15:35:08.843Z,14.00
2022-12-18T15:37:35.285Z,14.26
2022-12-18T15:40:01.954Z,14.32
2022-12-18T15:42:28.497Z,14.99
2022-12-18T15:44:57.950Z,14.05
2022-12-18T15:47:24.517Z,14.57
2022-12-18T15:49:51.078Z,14.14
2022-12-18T15:52:19.633Z,15.00
2022-12-18T15:54:46.141Z,14.85
2022-12-18T15:57:14.994Z,14.40
2022-12-18T15:59:41.596Z,14.98
2022-12-18T16:02:08.389Z,18.03
2022-12-18T16:04:35.245Z,21.17
2022-12-18T16:07:19.326Z,22.31
2022-12-18T16:09:49.304Z,25.01
2022-12-18T16:12:15.750Z,24.55
2022-12-18T16:14:43.102Z,23.05
2022-12-18T16:17:09.630Z,20.92
2022-12-18T16:19:36.000Z,18.67
2022-12-18T16:22:02.472Z,18.95
2022-12-18T16:24:28.950Z,19.74
2022-12-18T16:26:55.462Z,20.49
2022-12-18T16:29:21.999Z,21.19
2022-12-18T16:31:50.569Z,21.10
2022-12-18T16:34:19.650Z,20.50
2022-12-18T16:36:48.263Z,21.79
2022-12-18T16:39:14.603Z,20.17
2022-12-18T16:41:42.720Z,18.09
2022-12-18T16:44:09.117Z,16.62
2022-12-18T16:46:35.576Z,16.80
2022-12-18T16:49:01.983Z,16.70
2022-12-18T16:51:28.350Z,17.13
2022-12-18T16:53:54.814Z,17.98
2022-12-18T16:56:21.314Z,18.25
2022-12-18T16:58:49.702Z,17.38
2022-12-18T17:01:16.128Z,17.44
2022-12-18T17:03:42.907Z,18.13
2022-12-18T17:06:11.043Z,17.83
2022-12-18T17:08:40.437Z,18.46
2022-12-18T17:11:07.001Z,18.36
2022-12-18T17:13:33.490Z,17.95
2022-12-18T17:16:00.009Z,18.51
2022-12-18T17:18:26.415Z,18.22
2022-12-18T17:20:52.849Z,18.69
2022-12-18T17:23:19.338Z,18.13
2022-12-18T17:25:45.922Z,17.63
2022-12-18T17:28:13.045Z,17.63
2022-12-18T17:30:39.429Z,17.33
2022-12-18T17:33:08.939Z,17.84
2022-12-18T17:35:35.317Z,17.57
2022-12-18T17:38:01.661Z,17.42
2022-12-18T17:40:28.227Z,18.29
2022-12-18T17:42:54.623Z,17.70
2022-12-18T17:45:21.081Z,17.56
2022-12-18T17:47:59.722Z,17.42
2022-12-18T17:50:26.549Z,17.07
2022-12-18T17:52:53.365Z,17.77
2022-12-18T17:55:19.776Z,17.38
2022-12-18T17:57:48.184Z,17.99
2022-12-18T18:00:14.737Z,17.54
2022-12-18T18:02:41.407Z,17.19
2022-12-18T18:05:10.569Z,16.98
2022-12-18T18:07:38.500Z,17.27
2022-12-18T18:10:05.135Z,17.79
2022-12-18T18:12:32.116Z,18.19
2022-12-18T18:14:58.857Z,18.26
2022-12-18T18:17:25.589Z,17.85
2022-12-18T18:19:51.975Z,18.06
2022-12-18T18:22:30.997Z,17.59
2022-12-18T18:25:04.996Z,17.77
2022-12-18T18:27:38.264Z,18.20
2022-12-18T18:30:05.154Z,19.05
2022-12-18T18:32:32.322Z,21.57
2022-12-18T18:34:58.849Z,21.57
2022-12-18T18:37:26.405Z,21.18
2022-12-18T18:39:52.865Z,20.65
2022-12-18T18:42:19.310Z,20.41
2022-12-18T18:44:48.917Z,18.85
2022-12-18T18:47:15.814Z,19.67
2022-12-18T18:49:42.273Z,18.63
2022-12-18T18:52:09.835Z,18.02
2022-12-18T18:54:36.349Z,18.27
2022-12-18T18:57:20.014Z,18.75
2022-12-18T18:59:47.630Z,18.13
2022-12-18T19:02:14.569Z,18.59
2022-12-18T19:04:45.672Z,20.41
2022-12-18T19:07:12.878Z,23.88
2022-12-18T19:09:41.974Z,21.18
2022-12-18T19:12:08.311Z,19.75
2022-12-18T19:14:34.943Z,19.99
2022-12-18T19:17:01.427Z,19.88
2022-12-18T19:19:30.064Z,20.06
2022-12-18T19:21:56.631Z,19.79
2022-12-18T19:24:23.195Z,19.92
2022-12-18T19:26:49.823Z,20.27
2022-12-18T19:29:16.192Z,19.35
2022-12-18T19:31:42.767Z,19.85
2022-12-18T19:34:09.330Z,19.61
2022-12-18T19:36:35.903Z,18.46
2022-12-18T19:39:04.793Z,18.09
2022-12-18T19:41:32.837Z,18.07
2022-12-18T19:44:02.270Z,18.45
2022-12-18T19:46:35.829Z,19.34
2022-12-18T19:49:02.340Z,20.10
2022-12-18T19:51:30.109Z,19.82
2022-12-18T19:53:58.836Z,19.77
2022-12-18T19:56:26.830Z,18.83
2022-12-18T19:58:53.294Z,18.83
2022-12-18T20:01:20.228Z,19.00
2022-12-18T20:03:51.871Z,18.57
2022-12-18T20:06:19.268Z,18.50
2022-12-18T20:08:46.112Z,18.91
2022-12-18T20:11:16.357Z,19.48
2022-12-18T20:13:43.024Z,20.23
2022-12-18T20:16:11.524Z,19.86
2022-12-18T20:18:37.956Z,19.93
2022-12-18T20:21:06.264Z,20.19
2022-12-18T20:23:34.337Z,19.48
2022-12-18T20:26:03.630Z,19.26
2022-12-18T20:28:32.652Z,18.76
2022-12-18T20:30:59.326Z,18.99
2022-12-18T20:33:25.718Z,19.30
2022-12-18T20:35:52.085Z,19.62
2022-12-18T20:38:19.373Z,19.51
2022-12-18T20:40:50.115Z,19.99
2022-12-18T20:43:17.454Z,20.26
2022-12-18T20:45:44.082Z,19.61
2022-12-18T20:48:12.391Z,18.92
2022-12-18T20:50:38.738Z,19.34
2022-12-18T20:53:05.638Z,22.40
2022-12-18T20:55:32.374Z,21.55
2022-12-18T20:57:58.734Z,19.71
2022-12-18T21:00:25.197Z,19.42
2022-12-18T21:02:53.290Z,19.60
2022-12-18T21:05:19.793Z,19.35
2022-12-18T21:07:46.510Z,19.90
2022-12-18T21:10:12.992Z,19.02
2022-12-18T21:12:42.711Z,19.19
2022-12-18T21:15:16.153Z,19.37
2022-12-18T21:17:45.472Z,18.79
2022-12-18T21:20:13.273Z,18.34
2022-12-18T21:22:44.103Z,19.82
2022-12-18T21:25:10.439Z,19.91
2022-12-18T21:27:39.303Z,19.38
2022-12-18T21:30:05.651Z,19.67
2022-12-18T21:32:33.562Z,20.06
2022-12-18T21:35:00.367Z,22.71
2022-12-18T21:37:26.962Z,23.91
2022-12-18T21:39:53.741Z,22.69
2022-12-18T21:42:20.411Z,23.95
2022-12-18T21:44:47.097Z,22.25
2022-12-18T21:47:22.899Z,21.66
2022-12-18T21:49:49.793Z,21.58
2022-12-18T21:52:16.599Z,19.08
2022-12-18T21:54:42.963Z,19.35
2022-12-18T21:57:10.395Z,18.70
2022-12-18T21:59:37.015Z,18.56
2022-12-18T22:02:03.631Z,21.14
2022-12-18T22:04:32.452Z,19.76
2022-12-18T22:07:01.157Z,20.17
2022-12-18T22:09:27.978Z,21.08
2022-12-18T22:11:54.427Z,21.20
2022-12-18T22:14:21.828Z,21.06
2022-12-18T22:16:51.357Z,21.89
2022-12-18T22:19:18.414Z,23.33
2022-12-18T22:21:45.539Z,28.44
2022-12-18T22:24:13.065Z,29.03
2022-12-18T22:26:40.479Z,23.33
2022-12-18T22:29:07.003Z,20.28
2022-12-18T22:31:33.512Z,20.59
2022-12-18T22:34:00.109Z,19.26
2022-12-18T22:36:26.705Z,19.13
2022-12-18T22:38:53.100Z,19.65
2022-12-18T22:41:20.191Z,20.47
2022-12-18T22:43:46.751Z,20.78
2022-12-18T22:46:15.573Z,19.82
2022-12-18T22:48:42.148Z,19.49
2022-12-18T22:51:08.943Z,19.56
2022-12-18T22:53:35.857Z,19.04
2022-12-18T22:56:02.327Z,18.60
2022-12-18T22:58:28.900Z,19.42
2022-12-18T23:00:55.275Z,19.00
2022-12-18T23:03:21.746Z,19.03
2022-12-18T23:05:49.115Z,19.59
2022-12-18T23:08:16.913Z,19.23
2022-12-18T23:10:44.087Z,18.72
2022-12-18T23:13:10.483Z,18.89
2022-12-18T23:15:36.902Z,18.24
2022-12-18T23:18:03.272Z,18.53
2022-12-18T23:20:30.743Z,18.98
2022-12-18T23:22:57.224Z,18.65
2022-12-18T23:25:23.786Z,19.98
2022-12-18T23:27:50.208Z,20.53
2022-12-18T23:30:19.211Z,20.65
2022-12-18T23:32:46.807Z,21.20
2022-12-18T23:35:15.578Z,21.14
2022-12-18T23:37:58.849Z,20.99
2022-12-18T23:40:26.259Z,21.55
2022-12-18T23:42:52.714Z,20.91
2022-12-18T23:45:19.073Z,21.15
2022-12-18T23:47:45.441Z,21.17
2022-12-18T23:50:14.486Z,21.87
2022-12-18T23:52:41.215Z,22.24
2022-12-18T23:55:07.969Z,21.39
2022-12-18T23:57:34.439Z,21.42
